createdAt,value
2018-03-11T00:01:31.561Z,20.00
2018-03-11T00:03:59.122Z,18.57
2018-03-11T00:06:26.642Z,19.30
2018-03-11T00:08:54.938Z,20.00
2018-03-11T00:11:22.485Z,19.50
2018-03-11T00:13:50.008Z,17.57
2018-03-11T00:16:17.536Z,19.80
2018-03-11T00:18:45.385Z,18.30
2018-03-11T00:21:12.910Z,18.90
2018-03-11T00:23:40.454Z,19.40
2018-03-11T00:26:07.989Z,19.63
2018-03-11T00:28:35.501Z,19.27
2018-03-11T00:31:03.029Z,19.37
2018-03-11T00:33:30.555Z,17.63
2018-03-11T00:35:58.170Z,18.40
2018-03-11T00:38:26.326Z,17.97
2018-03-11T00:40:56.462Z,22.50
2018-03-11T00:43:23.983Z,20.60
2018-03-11T00:45:51.503Z,19.20
2018-03-11T00:48:19.028Z,18.27
2018-03-11T00:50:46.567Z,17.43
2018-03-11T00:53:14.080Z,18.53
2018-03-11T00:55:41.606Z,18.63
2018-03-11T00:58:09.201Z,17.80
2018-03-11T01:00:38.462Z,18.93
2018-03-11T01:03:05.980Z,15.63
2018-03-11T01:05:33.695Z,19.80
2018-03-11T01:08:01.221Z,17.93
2018-03-11T01:10:28.758Z,21.53
2018-03-11T01:12:56.284Z,19.43
2018-03-11T01:15:23.814Z,21.93
2018-03-11T01:17:51.401Z,17.83
2018-03-11T01:20:18.923Z,18.00
2018-03-11T01:22:46.547Z,19.97
2018-03-11T01:25:14.063Z,23.10
2018-03-11T01:27:41.599Z,17.73
2018-03-11T01:30:09.121Z,22.90
2018-03-11T01:32:37.330Z,21.87
2018-03-11T01:35:04.855Z,20.47
2018-03-11T01:37:32.376Z,19.43
2018-03-11T01:39:59.898Z,18.07
2018-03-11T01:42:27.414Z,21.23
2018-03-11T01:44:54.931Z,19.30
2018-03-11T01:47:22.440Z,16.53
2018-03-11T01:49:49.963Z,20.20
2018-03-11T01:52:18.565Z,18.00
2018-03-11T01:54:46.085Z,20.47
2018-03-11T01:57:14.538Z,20.13
2018-03-11T01:59:42.092Z,18.03
2018-03-11T02:02:09.950Z,19.50
2018-03-11T02:04:37.478Z,19.17
2018-03-11T02:07:05.827Z,19.77
2018-03-11T02:09:33.356Z,21.90
2018-03-11T02:12:00.888Z,17.83
2018-03-11T02:14:28.765Z,17.60
2018-03-11T02:16:56.537Z,18.80
2018-03-11T02:19:24.068Z,20.00
2018-03-11T02:21:51.586Z,20.10
2018-03-11T02:24:19.116Z,20.03
2018-03-11T02:26:46.639Z,18.80
2018-03-11T02:29:14.157Z,21.23
2018-03-11T02:31:41.674Z,20.43
2018-03-11T02:34:09.203Z,20.07
2018-03-11T02:36:36.715Z,18.77
2018-03-11T02:39:04.239Z,20.00
2018-03-11T02:41:31.762Z,19.93
2018-03-11T02:43:59.289Z,21.70
2018-03-11T02:46:26.805Z,19.17
2018-03-11T02:48:54.328Z,19.83
2018-03-11T02:51:21.847Z,21.50
2018-03-11T02:53:49.366Z,21.00
2018-03-11T02:56:16.894Z,20.07
2018-03-11T02:58:44.410Z,17.77
2018-03-11T03:01:11.957Z,18.70
2018-03-11T03:03:39.477Z,17.90
2018-03-11T03:06:06.994Z,21.00
2018-03-11T03:08:34.506Z,19.40
2018-03-11T03:11:02.018Z,22.23
2018-03-11T03:13:29.619Z,21.00
2018-03-11T03:15:57.143Z,19.43
2018-03-11T03:18:24.658Z,20.93
2018-03-11T03:20:52.189Z,19.27
2018-03-11T03:23:19.710Z,18.40
2018-03-11T03:25:47.235Z,21.67
2018-03-11T03:28:14.758Z,18.27
2018-03-11T03:30:42.274Z,18.03
2018-03-11T03:33:09.795Z,19.10
2018-03-11T03:35:37.317Z,20.70
2018-03-11T03:38:04.834Z,21.53
2018-03-11T03:40:32.361Z,20.03
2018-03-11T03:42:59.892Z,20.23
2018-03-11T03:45:27.412Z,18.83
2018-03-11T03:47:54.931Z,19.70
2018-03-11T03:50:22.459Z,22.23
2018-03-11T03:52:49.981Z,19.33
2018-03-11T03:55:17.522Z,20.93
2018-03-11T03:57:45.038Z,20.67
2018-03-11T04:00:12.558Z,19.93
2018-03-11T04:02:40.069Z,20.70
2018-03-11T04:05:07.592Z,23.67
2018-03-11T04:07:35.105Z,21.00
2018-03-11T04:10:02.613Z,19.17
2018-03-11T04:12:30.129Z,21.33
2018-03-11T04:14:57.649Z,21.87
2018-03-11T04:17:25.174Z,23.63
2018-03-11T04:19:52.690Z,22.63
2018-03-11T04:22:20.611Z,21.97
2018-03-11T04:24:48.138Z,23.00
2018-03-11T04:27:15.660Z,21.70
2018-03-11T04:29:43.181Z,19.90
2018-03-11T04:32:10.702Z,21.30
2018-03-11T04:34:38.250Z,19.57
2018-03-11T04:37:05.760Z,21.73
2018-03-11T04:39:34.268Z,20.73
2018-03-11T04:42:01.791Z,20.83
2018-03-11T04:44:29.302Z,24.03
2018-03-11T04:46:56.828Z,22.70
2018-03-11T04:49:24.349Z,23.67
2018-03-11T04:51:51.863Z,21.87
2018-03-11T04:54:20.080Z,22.77
2018-03-11T04:56:47.599Z,21.70
2018-03-11T04:59:15.122Z,23.13
2018-03-11T05:01:42.639Z,24.27
2018-03-11T05:04:10.480Z,26.37
2018-03-11T05:06:38.009Z,24.33
2018-03-11T05:09:05.522Z,24.30
2018-03-11T05:11:33.037Z,23.33
2018-03-11T05:14:00.552Z,23.03
2018-03-11T05:16:28.068Z,24.53
2018-03-11T05:18:55.582Z,24.27
2018-03-11T05:21:23.109Z,19.87
2018-03-11T05:23:50.635Z,25.33
2018-03-11T05:26:18.150Z,24.17
2018-03-11T05:28:45.672Z,23.30
2018-03-11T05:31:13.199Z,22.37
2018-03-11T05:33:40.726Z,24.43
2018-03-11T05:36:08.262Z,21.73
2018-03-11T05:38:35.798Z,22.90
2018-03-11T05:41:03.305Z,25.57
2018-03-11T05:43:30.818Z,24.00
2018-03-11T05:45:59.362Z,21.87
2018-03-11T05:48:28.007Z,22.83
2018-03-11T05:50:55.525Z,22.37
2018-03-11T05:53:23.037Z,25.40
2018-03-11T05:55:50.570Z,23.47
2018-03-11T05:58:18.636Z,22.73
2018-03-11T06:00:46.164Z,23.00
2018-03-11T06:03:13.685Z,23.03
2018-03-11T06:05:41.206Z,22.53
2018-03-11T06:08:08.729Z,21.63
2018-03-11T06:10:37.314Z,21.40
2018-03-11T06:13:04.805Z,22.50
2018-03-11T06:15:32.337Z,22.53
2018-03-11T06:17:59.854Z,20.93
2018-03-11T06:20:27.380Z,22.60
2018-03-11T06:22:54.898Z,20.53
2018-03-11T06:25:22.431Z,20.47
2018-03-11T06:27:50.753Z,22.07
2018-03-11T06:30:18.275Z,18.57
2018-03-11T06:32:46.857Z,20.67
2018-03-11T06:35:14.374Z,22.27
2018-03-11T06:37:41.899Z,19.33
2018-03-11T06:40:10.231Z,19.80
2018-03-11T06:42:37.754Z,22.30
2018-03-11T06:45:05.271Z,20.13
2018-03-11T06:47:32.795Z,19.63
2018-03-11T06:50:01.174Z,22.00
2018-03-11T06:52:28.693Z,21.33
2018-03-11T06:54:56.243Z,20.63
2018-03-11T06:57:23.765Z,25.10
2018-03-11T06:59:51.289Z,22.30
2018-03-11T07:02:19.020Z,22.17
2018-03-11T07:04:46.536Z,23.23
2018-03-11T07:07:14.065Z,26.07
2018-03-11T07:09:41.970Z,22.67
2018-03-11T07:12:10.813Z,23.53
2018-03-11T07:14:38.379Z,24.40
2018-03-11T07:17:05.910Z,23.80
2018-03-11T07:19:33.442Z,23.07
2018-03-11T07:22:00.966Z,23.37
2018-03-11T07:24:28.491Z,23.37
2018-03-11T07:26:56.784Z,23.00
2018-03-11T07:29:24.300Z,21.87
2018-03-11T07:31:52.190Z,22.60
2018-03-11T07:34:19.721Z,23.27
2018-03-11T07:36:47.689Z,23.77
2018-03-11T07:39:15.204Z,21.27
2018-03-11T07:41:43.626Z,21.57
2018-03-11T07:44:11.179Z,22.10
2018-03-11T07:46:39.740Z,20.27
2018-03-11T07:49:07.472Z,20.57
2018-03-11T07:51:34.991Z,18.67
2018-03-11T07:54:02.541Z,20.53
2018-03-11T07:56:30.078Z,18.50
2018-03-11T07:58:58.457Z,20.50
2018-03-11T08:01:26.018Z,19.93
2018-03-11T08:03:53.546Z,20.33
2018-03-11T08:06:21.071Z,18.97
2018-03-11T08:08:48.650Z,19.77
2018-03-11T08:11:16.200Z,17.40
2018-03-11T08:13:43.719Z,16.77
2018-03-11T08:16:11.246Z,17.80
2018-03-11T08:18:39.382Z,17.93
2018-03-11T08:21:06.939Z,17.13
2018-03-11T08:23:35.255Z,16.70
2018-03-11T08:26:02.790Z,17.27
2018-03-11T08:28:32.124Z,19.17
2018-03-11T08:30:59.645Z,16.37
2018-03-11T08:33:30.223Z,16.93
2018-03-11T08:35:57.803Z,16.63
2018-03-11T08:38:25.424Z,16.77
2018-03-11T08:40:52.946Z,16.40
2018-03-11T08:43:20.680Z,15.93
2018-03-11T08:45:48.207Z,16.77
2018-03-11T08:48:15.747Z,16.97
2018-03-11T08:50:43.290Z,16.20
2018-03-11T08:53:11.332Z,15.77
2018-03-11T08:55:38.853Z,15.23
2018-03-11T08:58:06.388Z,16.13
2018-03-11T09:00:33.979Z,15.70
2018-03-11T09:03:02.006Z,15.70
2018-03-11T09:05:30.897Z,15.27
2018-03-11T09:07:58.426Z,15.00
2018-03-11T09:10:26.116Z,14.67
2018-03-11T09:12:53.551Z,14.60
2018-03-11T09:15:21.110Z,16.17
2018-03-11T09:17:48.637Z,15.47
2018-03-11T09:20:16.337Z,14.73
2018-03-11T09:22:44.799Z,14.93
2018-03-11T09:25:12.730Z,14.17
2018-03-11T09:27:40.248Z,15.43
2018-03-11T09:30:11.453Z,16.60
2018-03-11T09:32:39.421Z,14.77
2018-03-11T09:35:07.012Z,15.37
2018-03-11T09:37:35.146Z,15.73
2018-03-11T09:40:02.688Z,14.93
2018-03-11T09:42:30.226Z,13.87
2018-03-11T09:44:59.051Z,14.57
2018-03-11T09:47:30.289Z,13.67
2018-03-11T09:49:57.860Z,13.90
2018-03-11T09:52:25.432Z,12.37
2018-03-11T09:54:55.286Z,12.70
2018-03-11T09:57:23.806Z,12.50
2018-03-11T09:59:51.576Z,11.30
2018-03-11T10:02:20.741Z,10.70
2018-03-11T10:04:50.512Z,11.97
2018-03-11T10:07:19.530Z,11.70
2018-03-11T10:09:47.901Z,11.97
2018-03-11T10:12:15.473Z,10.93
2018-03-11T10:14:44.517Z,10.57
2018-03-11T10:17:12.110Z,9.57
2018-03-11T10:19:40.334Z,9.20
2018-03-11T10:22:07.864Z,9.70
2018-03-11T10:24:36.990Z,9.83
2018-03-11T10:27:05.395Z,9.63
2018-03-11T10:29:32.912Z,8.70
2018-03-11T10:32:01.386Z,8.77
2018-03-11T10:34:30.211Z,9.27
2018-03-11T10:36:57.831Z,9.03
2018-03-11T10:39:28.726Z,8.50
2018-03-11T10:41:57.272Z,9.63
2018-03-11T10:44:24.958Z,9.50
2018-03-11T10:46:53.263Z,11.17
2018-03-11T10:49:21.752Z,8.33
2018-03-11T10:51:49.274Z,7.97
2018-03-11T10:54:18.325Z,8.90
2018-03-11T10:56:46.366Z,9.37
2018-03-11T10:59:13.886Z,7.03
2018-03-11T11:02:01.826Z,7.50
2018-03-11T11:07:29.946Z,6.67
2018-03-11T11:09:57.506Z,6.87
2018-03-11T11:12:25.029Z,7.03
2018-03-11T11:14:53.304Z,7.83
2018-03-11T11:17:20.822Z,9.13
2018-03-11T11:19:48.344Z,7.80
2018-03-11T11:22:15.865Z,8.10
2018-03-11T11:24:43.374Z,9.17
2018-03-11T11:27:10.888Z,8.37
2018-03-11T11:29:38.402Z,8.40
2018-03-11T11:32:05.922Z,10.97
2018-03-11T11:34:33.438Z,10.53
2018-03-11T11:37:00.966Z,10.60
2018-03-11T11:39:28.487Z,10.67
2018-03-11T11:41:56.004Z,11.27
2018-03-11T11:44:23.528Z,11.47
2018-03-11T11:46:51.054Z,12.83
2018-03-11T11:49:18.577Z,12.07
2018-03-11T11:51:46.167Z,13.60
2018-03-11T11:54:13.695Z,14.93
2018-03-11T11:56:41.221Z,14.03
2018-03-11T11:59:40.322Z,15.00
2018-03-11T12:02:07.888Z,15.97
2018-03-11T12:04:35.447Z,16.43
2018-03-11T12:07:02.982Z,19.83
2018-03-11T12:09:30.522Z,19.47
2018-03-11T12:11:59.061Z,15.20
2018-03-11T12:14:26.606Z,13.47
2018-03-11T12:16:54.759Z,13.77
2018-03-11T12:19:22.393Z,13.70
2018-03-11T12:21:49.996Z,14.20
2018-03-11T12:24:17.542Z,12.20
2018-03-11T12:26:45.056Z,13.20
2018-03-11T12:29:12.600Z,12.70
2018-03-11T12:31:40.209Z,9.87
2018-03-11T12:34:07.721Z,8.43
2018-03-11T12:36:35.232Z,7.20
2018-03-11T12:39:02.741Z,7.13
2018-03-11T12:41:30.283Z,6.53
2018-03-11T12:43:57.801Z,6.73
2018-03-11T12:46:25.349Z,6.83
2018-03-11T12:48:52.864Z,6.93
2018-03-11T12:51:20.393Z,7.40
2018-03-11T12:53:47.901Z,8.10
2018-03-11T12:56:15.451Z,7.47
2018-03-11T12:58:42.972Z,6.53
2018-03-11T13:01:10.487Z,7.53
2018-03-11T13:03:38.010Z,7.73
2018-03-11T13:06:05.534Z,6.43
2018-03-11T13:08:33.062Z,8.10
2018-03-11T13:11:00.581Z,7.10
2018-03-11T13:13:28.209Z,8.23
2018-03-11T13:15:55.782Z,8.13
2018-03-11T13:18:23.310Z,6.53
2018-03-11T13:21:02.620Z,8.93
2018-03-11T13:23:30.146Z,7.50
2018-03-11T13:25:57.669Z,7.20
2018-03-11T13:28:37.074Z,6.90
2018-03-11T13:31:04.664Z,7.73
2018-03-11T13:33:43.832Z,7.90
2018-03-11T13:36:11.350Z,7.93
2018-03-11T13:38:50.699Z,7.27
2018-03-11T13:41:18.275Z,7.20
2018-03-11T13:43:45.956Z,7.33
2018-03-11T13:46:25.509Z,8.63
2018-03-11T13:48:53.346Z,7.80
2018-03-11T13:51:32.706Z,7.27
2018-03-11T13:54:00.278Z,7.87
2018-03-11T13:56:27.798Z,9.50
2018-03-11T13:58:55.311Z,6.80
2018-03-11T14:01:22.845Z,8.77
2018-03-11T14:03:50.361Z,8.33
2018-03-11T14:06:17.870Z,7.50
2018-03-11T14:08:45.384Z,7.47
2018-03-11T14:11:12.906Z,7.90
2018-03-11T14:13:40.446Z,7.80
2018-03-11T14:16:07.974Z,10.43
2018-03-11T14:18:35.521Z,8.87
2018-03-11T14:21:03.032Z,8.73
2018-03-11T14:23:30.553Z,7.20
2018-03-11T14:25:58.097Z,6.30
2018-03-11T14:28:25.601Z,6.23
2018-03-11T14:30:53.126Z,6.20
2018-03-11T14:33:20.688Z,6.50
2018-03-11T14:35:48.710Z,7.93
2018-03-11T14:38:16.229Z,9.63
2018-03-11T14:40:43.888Z,8.67
2018-03-11T14:43:11.649Z,8.30
2018-03-11T14:45:39.179Z,9.13
2018-03-11T14:48:06.696Z,7.87
2018-03-11T14:50:34.324Z,6.87
2018-03-11T14:53:01.840Z,6.80
2018-03-11T14:55:29.376Z,8.17
2018-03-11T14:57:56.899Z,8.00
2018-03-11T15:00:24.431Z,6.23
2018-03-11T15:02:51.946Z,8.40
2018-03-11T15:05:19.469Z,8.30
2018-03-11T15:07:46.977Z,7.83
2018-03-11T15:10:14.495Z,6.80
2018-03-11T15:12:42.130Z,7.43
2018-03-11T15:15:09.670Z,7.33
2018-03-11T15:17:37.281Z,6.13
2018-03-11T15:20:04.799Z,6.07
2018-03-11T15:22:32.315Z,6.27
2018-03-11T15:24:59.833Z,7.03
2018-03-11T15:27:27.345Z,7.77
2018-03-11T15:29:54.860Z,7.93
2018-03-11T15:32:22.436Z,6.57
2018-03-11T15:34:49.954Z,7.70
2018-03-11T15:37:17.471Z,8.03
2018-03-11T15:39:45.002Z,7.87
2018-03-11T15:42:12.541Z,6.97
2018-03-11T15:44:40.082Z,6.93
2018-03-11T15:47:07.616Z,7.53
2018-03-11T15:49:35.203Z,7.63
2018-03-11T15:52:02.714Z,7.77
2018-03-11T15:54:30.374Z,8.13
2018-03-11T15:56:57.910Z,7.50
2018-03-11T15:59:25.446Z,7.67
2018-03-11T16:01:52.952Z,8.80
2018-03-11T16:04:20.492Z,7.77
2018-03-11T16:06:48.072Z,9.20
2018-03-11T16:09:15.589Z,12.30
2018-03-11T16:11:43.181Z,12.83
2018-03-11T16:14:10.740Z,11.17
2018-03-11T16:16:38.244Z,9.27
2018-03-11T16:19:05.876Z,11.87
2018-03-11T16:21:33.434Z,9.20
2018-03-11T16:24:00.958Z,9.90
2018-03-11T16:26:28.548Z,11.87
2018-03-11T16:28:56.078Z,10.97
2018-03-11T16:31:23.674Z,12.67
2018-03-11T16:33:51.191Z,10.80
2018-03-11T16:36:18.724Z,10.80
2018-03-11T16:38:46.269Z,12.00
2018-03-11T16:41:13.796Z,9.33
2018-03-11T16:43:41.366Z,11.50
2018-03-11T16:46:08.944Z,10.17
2018-03-11T16:48:36.451Z,9.73
2018-03-11T16:51:03.979Z,8.10
2018-03-11T16:53:31.508Z,8.37
2018-03-11T16:55:59.035Z,9.17
2018-03-11T16:58:26.573Z,9.53
2018-03-11T17:00:54.092Z,11.17
2018-03-11T17:03:21.612Z,7.77
2018-03-11T17:05:49.136Z,9.40
2018-03-11T17:08:16.655Z,9.07
2018-03-11T17:10:44.173Z,10.17
2018-03-11T17:13:11.694Z,8.20
2018-03-11T17:15:39.222Z,9.83
2018-03-11T17:18:06.754Z,8.47
2018-03-11T17:20:34.368Z,10.20
2018-03-11T17:23:01.881Z,9.17
2018-03-11T17:25:29.439Z,10.87
2018-03-11T17:27:56.961Z,9.60
2018-03-11T17:30:24.481Z,10.53
2018-03-11T17:32:51.993Z,10.23
2018-03-11T17:35:19.512Z,8.90
2018-03-11T17:37:47.033Z,9.27
2018-03-11T17:40:14.562Z,10.77
2018-03-11T17:42:42.098Z,12.07
2018-03-11T17:45:09.616Z,11.43
2018-03-11T17:47:37.141Z,14.27
2018-03-11T17:50:04.660Z,11.60
2018-03-11T17:52:32.177Z,13.93
2018-03-11T17:54:59.780Z,10.27
2018-03-11T17:57:27.306Z,11.87
2018-03-11T17:59:54.831Z,10.80
2018-03-11T18:02:22.342Z,14.13
2018-03-11T18:04:49.895Z,10.20
2018-03-11T18:07:17.418Z,15.77
2018-03-11T18:09:45.053Z,11.60
2018-03-11T18:12:12.572Z,11.07
2018-03-11T18:14:40.137Z,11.67
2018-03-11T18:17:07.688Z,11.60
2018-03-11T18:19:35.566Z,12.23
2018-03-11T18:22:04.125Z,12.10
2018-03-11T18:24:31.656Z,14.17
2018-03-11T18:26:59.170Z,11.23
2018-03-11T18:29:26.681Z,12.20
2018-03-11T18:31:54.216Z,11.10
2018-03-11T18:34:21.755Z,12.37
2018-03-11T18:36:49.268Z,12.20
2018-03-11T18:39:16.793Z,12.07
2018-03-11T18:41:44.309Z,11.47
2018-03-11T18:44:11.929Z,11.97
2018-03-11T18:46:39.458Z,14.97
2018-03-11T18:49:06.989Z,13.63
2018-03-11T18:51:34.556Z,11.70
2018-03-11T18:54:02.091Z,11.43
2018-03-11T18:56:29.615Z,14.47
2018-03-11T18:58:57.171Z,13.83
2018-03-11T19:01:24.701Z,14.10
2018-03-11T19:03:52.291Z,14.10
2018-03-11T19:06:19.813Z,12.03
2018-03-11T19:08:47.354Z,13.27
2018-03-11T19:11:14.976Z,12.53
2018-03-11T19:13:42.520Z,13.77
2018-03-11T19:16:10.044Z,13.17
2018-03-11T19:18:37.580Z,12.10
2018-03-11T19:21:05.110Z,15.43
2018-03-11T19:23:32.693Z,14.87
2018-03-11T19:26:01.216Z,18.40
2018-03-11T19:28:28.834Z,14.27
2018-03-11T19:30:56.354Z,15.73
2018-03-11T19:33:23.897Z,15.37
2018-03-11T19:35:51.434Z,13.20
2018-03-11T19:38:18.969Z,14.50
2018-03-11T19:40:46.524Z,13.97
2018-03-11T19:43:14.045Z,15.43
2018-03-11T19:45:41.580Z,13.40
2018-03-11T19:48:09.118Z,14.80
2018-03-11T19:50:36.647Z,15.70
2018-03-11T19:53:04.209Z,16.80
2018-03-11T19:55:31.734Z,17.23
2018-03-11T19:57:59.248Z,14.90
2018-03-11T20:00:26.772Z,14.50
2018-03-11T20:02:54.344Z,15.53
2018-03-11T20:05:21.871Z,17.33
2018-03-11T20:07:49.397Z,14.63
2018-03-11T20:10:16.922Z,14.97
2018-03-11T20:12:44.450Z,16.47
2018-03-11T20:15:11.979Z,16.23
2018-03-11T20:17:39.515Z,16.80
2018-03-11T20:20:07.857Z,16.60
2018-03-11T20:22:35.381Z,15.63
2018-03-11T20:25:02.943Z,18.13
2018-03-11T20:27:30.462Z,16.07
2018-03-11T20:29:58.014Z,15.10
2018-03-11T20:32:25.534Z,14.40
2018-03-11T20:34:53.111Z,15.70
2018-03-11T20:37:20.630Z,18.33
2018-03-11T20:39:48.149Z,15.43
2018-03-11T20:42:15.695Z,15.60
2018-03-11T20:44:43.230Z,16.67
2018-03-11T20:47:10.753Z,15.97
2018-03-11T20:49:38.276Z,16.83
2018-03-11T20:52:05.793Z,15.63
2018-03-11T20:54:33.310Z,14.70
2018-03-11T20:57:00.841Z,14.73
2018-03-11T20:59:28.358Z,14.77
2018-03-11T21:01:55.886Z,16.80
2018-03-11T21:04:23.454Z,16.90
2018-03-11T21:06:50.974Z,15.90
2018-03-11T21:09:18.539Z,18.57
2018-03-11T21:11:46.128Z,15.07
2018-03-11T21:14:13.645Z,17.70
2018-03-11T21:16:41.164Z,15.93
2018-03-11T21:19:08.691Z,14.60
2018-03-11T21:21:36.216Z,18.27
2018-03-11T21:24:03.738Z,15.47
2018-03-11T21:26:31.279Z,15.20
2018-03-11T21:28:58.843Z,15.13
2018-03-11T21:31:26.397Z,17.47
2018-03-11T21:33:53.936Z,15.73
2018-03-11T21:36:21.463Z,14.87
2018-03-11T21:38:48.992Z,17.43
2018-03-11T21:41:16.641Z,17.30
2018-03-11T21:43:44.301Z,16.87
2018-03-11T21:46:11.866Z,17.80
2018-03-11T21:48:39.395Z,21.50
2018-03-11T21:51:06.932Z,15.83
2018-03-11T21:53:34.476Z,15.93
2018-03-11T21:56:02.114Z,19.83
2018-03-11T21:58:29.693Z,15.87
2018-03-11T22:00:57.215Z,16.87
2018-03-11T22:03:24.788Z,18.03
2018-03-11T22:05:52.303Z,18.33
2018-03-11T22:08:19.829Z,17.03
2018-03-11T22:10:47.352Z,15.27
2018-03-11T22:13:14.925Z,18.57
2018-03-11T22:15:42.454Z,17.57
2018-03-11T22:18:09.986Z,16.83
2018-03-11T22:20:37.563Z,15.30
2018-03-11T22:23:05.090Z,15.37
2018-03-11T22:25:32.621Z,19.17
2018-03-11T22:28:00.146Z,17.33
2018-03-11T22:30:27.667Z,16.50
2018-03-11T22:32:55.201Z,18.67
2018-03-11T22:35:22.718Z,16.87
2018-03-11T22:37:50.255Z,17.67
2018-03-11T22:40:17.782Z,16.70
2018-03-11T22:42:45.308Z,17.87
2018-03-11T22:45:12.829Z,18.93
2018-03-11T22:47:40.360Z,19.27
2018-03-11T22:50:07.881Z,19.53
2018-03-11T22:52:35.474Z,18.90
2018-03-11T22:55:03.112Z,20.77
2018-03-11T22:57:30.638Z,18.03
2018-03-11T22:59:58.182Z,18.23
2018-03-11T23:02:25.708Z,18.07
2018-03-11T23:04:53.241Z,17.03
2018-03-11T23:07:20.758Z,19.37
2018-03-11T23:09:48.294Z,19.50
2018-03-11T23:12:15.821Z,19.47
2018-03-11T23:14:43.349Z,17.17
2018-03-11T23:17:10.973Z,20.30
2018-03-11T23:19:38.502Z,20.17
2018-03-11T23:22:06.038Z,20.77
2018-03-11T23:24:33.572Z,21.17
2018-03-11T23:27:01.214Z,18.20
2018-03-11T23:29:28.771Z,21.33
2018-03-11T23:31:56.408Z,19.50
2018-03-11T23:34:23.960Z,18.93
2018-03-11T23:36:51.519Z,19.53
2018-03-11T23:39:19.070Z,17.37
2018-03-11T23:41:46.594Z,19.77
2018-03-11T23:44:14.128Z,22.03
2018-03-11T23:46:41.691Z,23.53
2018-03-11T23:49:09.228Z,22.40
2018-03-11T23:51:36.743Z,20.63
2018-03-11T23:54:04.422Z,19.37
2018-03-11T23:56:31.969Z,18.53
2018-03-11T23:58:59.597Z,22.17
